sensor_id;sensor_type;location;lat;lon;timestamp;pressure;altitude;pressure_sealevel;temperature;humidity
36664;BME280;53333;51.976;20.144;2023-04-26T00:02:24;99470.75;;;9.78;61.74
36664;BME280;53333;51.976;20.144;2023-04-26T00:04:58;99482.47;;;9.75;61.89
36664;BME280;53333;51.976;20.144;2023-04-26T00:07:33;99477.22;;;9.74;61.89
36664;BME280;53333;51.976;20.144;2023-04-26T00:10:09;99482.72;;;9.71;62.00
36664;BME280;53333;51.976;20.144;2023-04-26T00:12:42;99482.22;;;9.64;61.81
36664;BME280;53333;51.976;20.144;2023-04-26T00:15:15;99485.47;;;9.53;61.86
36664;BME280;53333;51.976;20.144;2023-04-26T00:17:49;99471.78;;;9.43;62.14
36664;BME280;53333;51.976;20.144;2023-04-26T00:20:22;99485.69;;;9.33;62.31
36664;BME280;53333;51.976;20.144;2023-04-26T00:22:55;99483.59;;;9.22;62.33
36664;BME280;53333;51.976;20.144;2023-04-26T00:25:28;99495.63;;;9.13;62.57
36664;BME280;53333;51.976;20.144;2023-04-26T00:28:01;99499.63;;;9.04;62.60
36664;BME280;53333;51.976;20.144;2023-04-26T00:30:34;99493.94;;;8.95;62.94
36664;BME280;53333;51.976;20.144;2023-04-26T00:33:09;99489.06;;;8.85;63.10
36664;BME280;53333;51.976;20.144;2023-04-26T00:35:42;99496.44;;;8.80;63.40
36664;BME280;53333;51.976;20.144;2023-04-26T00:38:15;99501.84;;;8.79;63.59
36664;BME280;53333;51.976;20.144;2023-04-26T00:40:48;99501.16;;;8.75;63.55
36664;BME280;53333;51.976;20.144;2023-04-26T00:43:21;99500.53;;;8.70;63.69
36664;BME280;53333;51.976;20.144;2023-04-26T00:45:54;99499.84;;;8.66;63.64
36664;BME280;53333;51.976;20.144;2023-04-26T00:48:28;99499.34;;;8.58;63.85
36664;BME280;53333;51.976;20.144;2023-04-26T00:51:02;99498.88;;;8.50;63.61
36664;BME280;53333;51.976;20.144;2023-04-26T00:53:36;99508.25;;;8.40;63.67
36664;BME280;53333;51.976;20.144;2023-04-26T00:56:09;99505.03;;;8.33;63.43
36664;BME280;53333;51.976;20.144;2023-04-26T00:58:43;99508.16;;;8.24;63.37
36664;BME280;53333;51.976;20.144;2023-04-26T01:01:16;99511.34;;;8.13;63.10
36664;BME280;53333;51.976;20.144;2023-04-26T01:03:51;99511.34;;;8.13;63.10
36664;BME280;53333;51.976;20.144;2023-04-26T01:06:25;99516.75;;;7.92;62.92
36664;BME280;53333;51.976;20.144;2023-04-26T01:09:02;99511.78;;;7.85;62.78
36664;BME280;53333;51.976;20.144;2023-04-26T01:11:36;99511.22;;;7.78;62.58
36664;BME280;53333;51.976;20.144;2023-04-26T01:14:10;99511.59;;;7.70;62.18
36664;BME280;53333;51.976;20.144;2023-04-26T01:16:43;99519.78;;;7.66;62.02
36664;BME280;53333;51.976;20.144;2023-04-26T01:19:19;99514.75;;;7.59;61.77
36664;BME280;53333;51.976;20.144;2023-04-26T01:21:52;99519.50;;;7.53;61.86
36664;BME280;53333;51.976;20.144;2023-04-26T01:24:26;99521.50;;;7.48;61.69
36664;BME280;53333;51.976;20.144;2023-04-26T01:27:00;99531.56;;;7.41;61.50
36664;BME280;53333;51.976;20.144;2023-04-26T01:29:34;99522.06;;;7.35;61.61
36664;BME280;53333;51.976;20.144;2023-04-26T01:32:08;99528.53;;;7.30;61.28
36664;BME280;53333;51.976;20.144;2023-04-26T01:34:41;99534.97;;;7.24;61.38
36664;BME280;53333;51.976;20.144;2023-04-26T01:37:14;99533.47;;;7.18;61.21
36664;BME280;53333;51.976;20.144;2023-04-26T01:39:48;99533.78;;;7.11;61.14
36664;BME280;53333;51.976;20.144;2023-04-26T01:42:23;99535.75;;;7.07;61.24
36664;BME280;53333;51.976;20.144;2023-04-26T01:44:56;99538.59;;;7.02;61.31
36664;BME280;53333;51.976;20.144;2023-04-26T01:47:29;99535.34;;;6.96;61.04
36664;BME280;53333;51.976;20.144;2023-04-26T01:50:02;99547.16;;;6.88;61.11
36664;BME280;53333;51.976;20.144;2023-04-26T01:52:35;99545.69;;;6.81;61.10
36664;BME280;53333;51.976;20.144;2023-04-26T01:55:09;99553.88;;;6.77;61.14
36664;BME280;53333;51.976;20.144;2023-04-26T01:57:42;99550.63;;;6.68;61.10
36664;BME280;53333;51.976;20.144;2023-04-26T02:00:17;99559.81;;;6.61;61.11
36664;BME280;53333;51.976;20.144;2023-04-26T02:02:53;99555.72;;;6.52;61.29
36664;BME280;53333;51.976;20.144;2023-04-26T02:05:27;99554.41;;;6.42;61.25
36664;BME280;53333;51.976;20.144;2023-04-26T02:08:00;99555.50;;;6.36;61.43
36664;BME280;53333;51.976;20.144;2023-04-26T02:10:34;99553.00;;;6.33;61.47
36664;BME280;53333;51.976;20.144;2023-04-26T02:13:07;99549.72;;;6.27;61.39
36664;BME280;53333;51.976;20.144;2023-04-26T02:15:40;99554.47;;;6.18;61.45
36664;BME280;53333;51.976;20.144;2023-04-26T02:18:13;99565.44;;;6.09;61.73
36664;BME280;53333;51.976;20.144;2023-04-26T02:20:46;99563.13;;;6.02;61.72
36664;BME280;53333;51.976;20.144;2023-04-26T02:23:19;99563.31;;;5.95;61.90
36664;BME280;53333;51.976;20.144;2023-04-26T02:25:53;99561.75;;;5.90;61.87
36664;BME280;53333;51.976;20.144;2023-04-26T02:28:26;99564.53;;;5.87;61.92
36664;BME280;53333;51.976;20.144;2023-04-26T02:31:01;99558.53;;;5.81;61.94
36664;BME280;53333;51.976;20.144;2023-04-26T02:33:34;99556.97;;;5.76;61.96
36664;BME280;53333;51.976;20.144;2023-04-26T02:36:07;99555.38;;;5.72;62.08
36664;BME280;53333;51.976;20.144;2023-04-26T02:38:40;99553.81;;;5.66;62.09
36664;BME280;53333;51.976;20.144;2023-04-26T02:41:14;99559.34;;;5.60;62.23
36664;BME280;53333;51.976;20.144;2023-04-26T02:43:47;99556.84;;;5.57;62.15
36664;BME280;53333;51.976;20.144;2023-04-26T02:46:20;99567.63;;;5.52;62.16
36664;BME280;53333;51.976;20.144;2023-04-26T02:48:53;99556.25;;;5.49;62.28
36664;BME280;53333;51.976;20.144;2023-04-26T02:51:26;99557.41;;;5.41;62.33
36664;BME280;53333;51.976;20.144;2023-04-26T02:53:59;99561.97;;;5.38;62.24
36664;BME280;53333;51.976;20.144;2023-04-26T02:56:37;99555.09;;;5.32;62.52
36664;BME280;53333;51.976;20.144;2023-04-26T02:59:10;99558.75;;;5.28;62.69
36664;BME280;53333;51.976;20.144;2023-04-26T03:01:42;99550.97;;;5.25;62.60
36664;BME280;53333;51.976;20.144;2023-04-26T03:04:15;99559.06;;;5.20;62.71
36664;BME280;53333;51.976;20.144;2023-04-26T03:06:49;99559.19;;;5.17;62.70
36664;BME280;53333;51.976;20.144;2023-04-26T03:09:22;99556.69;;;5.13;62.86
36664;BME280;53333;51.976;20.144;2023-04-26T03:11:57;99563.00;;;5.08;62.82
36664;BME280;53333;51.976;20.144;2023-04-26T03:14:30;99568.34;;;5.07;63.00
36664;BME280;53333;51.976;20.144;2023-04-26T03:17:04;99566.69;;;5.04;63.17
36664;BME280;53333;51.976;20.144;2023-04-26T03:19:37;99570.34;;;5.00;63.08
36664;BME280;53333;51.976;20.144;2023-04-26T03:22:10;99572.19;;;4.98;63.21
36664;BME280;53333;51.976;20.144;2023-04-26T03:24:46;99567.06;;;4.94;63.23
36664;BME280;53333;51.976;20.144;2023-04-26T03:27:21;99576.00;;;4.89;63.43
36664;BME280;53333;51.976;20.144;2023-04-26T03:29:54;99577.00;;;4.87;63.49
36664;BME280;53333;51.976;20.144;2023-04-26T03:32:27;99579.66;;;4.87;63.44
36664;BME280;53333;51.976;20.144;2023-04-26T03:35:00;99588.56;;;4.84;63.60
36664;BME280;53333;51.976;20.144;2023-04-26T03:37:33;99591.19;;;4.84;63.62
36664;BME280;53333;51.976;20.144;2023-04-26T03:40:10;99589.50;;;4.82;63.47
36664;BME280;53333;51.976;20.144;2023-04-26T03:42:44;99597.19;;;4.89;63.25
36664;BME280;53333;51.976;20.144;2023-04-26T03:45:18;99591.56;;;4.73;63.48
36664;BME280;53333;51.976;20.144;2023-04-26T03:47:51;99589.94;;;4.69;63.60
36664;BME280;53333;51.976;20.144;2023-04-26T03:50:25;99595.34;;;4.66;63.80
36664;BME280;53333;51.976;20.144;2023-04-26T03:52:57;99591.81;;;4.66;63.86
36664;BME280;53333;51.976;20.144;2023-04-26T03:55:30;99595.38;;;4.65;63.99
36664;BME280;53333;51.976;20.144;2023-04-26T03:58:05;99597.19;;;4.64;64.10
36664;BME280;53333;51.976;20.144;2023-04-26T04:00:39;99590.16;;;4.63;64.00
36664;BME280;53333;51.976;20.144;2023-04-26T04:03:12;99596.84;;;4.73;63.54
36664;BME280;53333;51.976;20.144;2023-04-26T04:05:45;99603.31;;;4.65;63.90
36664;BME280;53333;51.976;20.144;2023-04-26T04:08:18;99609.53;;;4.64;63.88
36664;BME280;53333;51.976;20.144;2023-04-26T04:10:51;99606.81;;;4.65;64.15
36664;BME280;53333;51.976;20.144;2023-04-26T04:13:25;99607.63;;;4.67;64.17
36664;BME280;53333;51.976;20.144;2023-04-26T04:15:58;99607.53;;;4.70;64.07
36664;BME280;53333;51.976;20.144;2023-04-26T04:18:32;99614.34;;;4.78;64.07
36664;BME280;53333;51.976;20.144;2023-04-26T04:21:05;99614.16;;;4.84;64.15
36664;BME280;53333;51.976;20.144;2023-04-26T04:23:38;99611.31;;;4.90;64.14
36664;BME280;53333;51.976;20.144;2023-04-26T04:26:13;99613.72;;;4.96;64.08
36664;BME280;53333;51.976;20.144;2023-04-26T04:28:48;99617.91;;;5.03;64.09
36664;BME280;53333;51.976;20.144;2023-04-26T04:31:23;99612.41;;;5.09;64.08
36664;BME280;53333;51.976;20.144;2023-04-26T04:33:56;99611.28;;;5.15;63.75
36664;BME280;53333;51.976;20.144;2023-04-26T04:36:29;99611.91;;;5.23;63.88
36664;BME280;53333;51.976;20.144;2023-04-26T04:39:03;99618.59;;;5.34;63.66
36664;BME280;53333;51.976;20.144;2023-04-26T04:41:37;99613.94;;;5.40;63.57
36664;BME280;53333;51.976;20.144;2023-04-26T04:44:12;99622.38;;;5.52;63.40
36664;BME280;53333;51.976;20.144;2023-04-26T04:46:47;99628.28;;;5.58;63.25
36664;BME280;53333;51.976;20.144;2023-04-26T04:49:20;99631.63;;;5.65;63.18
36664;BME280;53333;51.976;20.144;2023-04-26T04:51:53;99629.53;;;5.73;63.19
36664;BME280;53333;51.976;20.144;2023-04-26T04:54:26;99635.41;;;5.81;63.05
36664;BME280;53333;51.976;20.144;2023-04-26T04:56:59;99636.09;;;5.87;62.94
36664;BME280;53333;51.976;20.144;2023-04-26T04:59:34;99641.97;;;5.95;62.84
36664;BME280;53333;51.976;20.144;2023-04-26T05:02:07;99640.81;;;6.04;62.83
36664;BME280;53333;51.976;20.144;2023-04-26T05:04:41;99631.66;;;6.11;62.76
36664;BME280;53333;51.976;20.144;2023-04-26T05:07:14;99640.06;;;6.22;62.58
36664;BME280;53333;51.976;20.144;2023-04-26T05:09:49;99636.22;;;6.31;62.41
36664;BME280;53333;51.976;20.144;2023-04-26T05:12:22;99639.34;;;6.41;62.14
36664;BME280;53333;51.976;20.144;2023-04-26T05:14:56;99642.56;;;6.49;62.27
36664;BME280;53333;51.976;20.144;2023-04-26T05:17:30;99630.59;;;6.61;62.05
36664;BME280;53333;51.976;20.144;2023-04-26T05:20:08;99637.13;;;6.74;61.82
36664;BME280;53333;51.976;20.144;2023-04-26T05:22:42;99638.34;;;6.87;61.60
36664;BME280;53333;51.976;20.144;2023-04-26T05:25:15;99636.91;;;7.01;61.33
36664;BME280;53333;51.976;20.144;2023-04-26T05:27:53;99641.78;;;7.12;61.19
36664;BME280;53333;51.976;20.144;2023-04-26T05:31:00;99641.16;;;7.25;60.72
36664;BME280;53333;51.976;20.144;2023-04-26T05:33:51;99644.16;;;7.38;60.63
36664;BME280;53333;51.976;20.144;2023-04-26T05:36:33;99644.66;;;7.46;60.36
36664;BME280;53333;51.976;20.144;2023-04-26T05:39:06;99643.56;;;7.52;60.19
36664;BME280;53333;51.976;20.144;2023-04-26T05:41:39;99643.06;;;7.63;60.02
36664;BME280;53333;51.976;20.144;2023-04-26T05:44:13;99649.69;;;7.73;59.82
36664;BME280;53333;51.976;20.144;2023-04-26T05:46:48;99644.75;;;7.85;59.81
36664;BME280;53333;51.976;20.144;2023-04-26T05:49:21;99646.84;;;7.97;59.38
36664;BME280;53333;51.976;20.144;2023-04-26T05:51:54;99648.22;;;8.06;59.28
36664;BME280;53333;51.976;20.144;2023-04-26T05:54:27;99648.59;;;8.17;59.10
36664;BME280;53333;51.976;20.144;2023-04-26T05:57:00;99639.94;;;8.31;59.02
36664;BME280;53333;51.976;20.144;2023-04-26T05:59:35;99642.09;;;8.42;58.70
36664;BME280;53333;51.976;20.144;2023-04-26T06:02:10;99648.97;;;8.47;58.36
36664;BME280;53333;51.976;20.144;2023-04-26T06:04:43;99649.81;;;8.48;58.13
36664;BME280;53333;51.976;20.144;2023-04-26T06:07:19;99657.38;;;8.57;58.26
36664;BME280;53333;51.976;20.144;2023-04-26T06:09:52;99656.06;;;8.66;57.91
36664;BME280;53333;51.976;20.144;2023-04-26T06:12:28;99650.84;;;8.82;57.64
36664;BME280;53333;51.976;20.144;2023-04-26T06:15:03;99649.84;;;9.02;57.61
36664;BME280;53333;51.976;20.144;2023-04-26T06:17:39;99653.69;;;9.14;56.87
36664;BME280;53333;51.976;20.144;2023-04-26T06:20:13;99655.66;;;9.27;56.80
36664;BME280;53333;51.976;20.144;2023-04-26T06:22:46;99660.25;;;9.59;56.74
36664;BME280;53333;51.976;20.144;2023-04-26T06:25:19;99656.31;;;9.66;56.50
36664;BME280;53333;51.976;20.144;2023-04-26T06:27:52;99657.13;;;9.84;56.00
36664;BME280;53333;51.976;20.144;2023-04-26T06:30:25;99656.91;;;10.05;55.30
36664;BME280;53333;51.976;20.144;2023-04-26T06:33:00;99657.72;;;10.23;55.05
36664;BME280;53333;51.976;20.144;2023-04-26T06:35:38;99661.13;;;10.42;54.35
36664;BME280;53333;51.976;20.144;2023-04-26T06:38:13;99661.22;;;10.57;53.73
36664;BME280;53333;51.976;20.144;2023-04-26T06:40:45;99649.03;;;10.67;53.60
36664;BME280;53333;51.976;20.144;2023-04-26T06:43:19;99657.94;;;10.83;53.37
36664;BME280;53333;51.976;20.144;2023-04-26T06:46:10;99655.72;;;11.06;52.60
36664;BME280;53333;51.976;20.144;2023-04-26T06:48:44;99654.03;;;11.19;52.24
36664;BME280;53333;51.976;20.144;2023-04-26T06:51:17;99660.06;;;11.23;52.43
36664;BME280;53333;51.976;20.144;2023-04-26T06:53:50;99661.72;;;11.40;52.29
36664;BME280;53333;51.976;20.144;2023-04-26T06:56:24;99664.25;;;11.57;52.78
36664;BME280;53333;51.976;20.144;2023-04-26T06:58:58;99664.03;;;11.46;51.56
36664;BME280;53333;51.976;20.144;2023-04-26T07:01:32;99667.06;;;11.40;51.39
36664;BME280;53333;51.976;20.144;2023-04-26T07:04:07;99666.25;;;11.54;51.42
36664;BME280;53333;51.976;20.144;2023-04-26T07:06:41;99664.81;;;11.62;50.74
36664;BME280;53333;51.976;20.144;2023-04-26T07:09:14;99669.59;;;11.57;50.56
36664;BME280;53333;51.976;20.144;2023-04-26T07:11:47;99671.88;;;11.49;50.71
36664;BME280;53333;51.976;20.144;2023-04-26T07:14:20;99673.19;;;11.42;50.65
36664;BME280;53333;51.976;20.144;2023-04-26T07:16:53;99678.03;;;11.35;50.25
36664;BME280;53333;51.976;20.144;2023-04-26T07:19:27;99672.13;;;11.30;50.37
36664;BME280;53333;51.976;20.144;2023-04-26T07:22:00;99683.06;;;11.25;50.47
36664;BME280;53333;51.976;20.144;2023-04-26T07:24:33;99674.16;;;11.41;50.13
36664;BME280;53333;51.976;20.144;2023-04-26T07:27:06;99680.19;;;11.44;50.06
36664;BME280;53333;51.976;20.144;2023-04-26T07:29:38;99674.56;;;11.49;49.58
36664;BME280;53333;51.976;20.144;2023-04-26T07:32:11;99676.44;;;11.47;49.66
36664;BME280;53333;51.976;20.144;2023-04-26T07:34:46;99676.94;;;11.54;49.54
36664;BME280;53333;51.976;20.144;2023-04-26T07:37:18;99682.41;;;11.67;48.98
36664;BME280;53333;51.976;20.144;2023-04-26T07:39:51;99677.38;;;11.76;49.09
36664;BME280;53333;51.976;20.144;2023-04-26T07:42:24;99681.56;;;11.80;48.35
36664;BME280;53333;51.976;20.144;2023-04-26T07:44:57;99693.19;;;11.95;48.45
36664;BME280;53333;51.976;20.144;2023-04-26T07:47:30;99688.78;;;11.94;48.55
36664;BME280;53333;51.976;20.144;2023-04-26T07:50:06;99689.16;;;12.03;48.21
36664;BME280;53333;51.976;20.144;2023-04-26T07:52:41;99682.66;;;12.21;47.60
36664;BME280;53333;51.976;20.144;2023-04-26T07:55:17;99688.47;;;12.42;46.80
36664;BME280;53333;51.976;20.144;2023-04-26T07:57:50;99683.41;;;12.38;46.48
36664;BME280;53333;51.976;20.144;2023-04-26T08:00:23;99694.97;;;12.09;46.53
36664;BME280;53333;51.976;20.144;2023-04-26T08:02:56;99708.22;;;11.82;47.27
36664;BME280;53333;51.976;20.144;2023-04-26T08:05:30;99700.47;;;11.77;46.94
36664;BME280;53333;51.976;20.144;2023-04-26T08:08:04;99699.44;;;11.80;46.92
36664;BME280;53333;51.976;20.144;2023-04-26T08:10:39;99704.88;;;11.78;46.31
36664;BME280;53333;51.976;20.144;2023-04-26T08:13:12;99712.31;;;11.59;45.88
36664;BME280;53333;51.976;20.144;2023-04-26T08:15:45;99719.50;;;11.73;45.62
36664;BME280;53333;51.976;20.144;2023-04-26T08:18:18;99707.97;;;12.15;45.31
36664;BME280;53333;51.976;20.144;2023-04-26T08:20:52;99706.06;;;12.88;44.86
36664;BME280;53333;51.976;20.144;2023-04-26T08:23:25;99705.78;;;13.60;42.93
36664;BME280;53333;51.976;20.144;2023-04-26T08:25:58;99698.38;;;13.76;41.80
36664;BME280;53333;51.976;20.144;2023-04-26T08:28:32;99700.59;;;13.44;40.77
36664;BME280;53333;51.976;20.144;2023-04-26T08:31:06;99712.72;;;12.95;40.88
36664;BME280;53333;51.976;20.144;2023-04-26T08:33:40;99712.09;;;12.50;41.55
36664;BME280;53333;51.976;20.144;2023-04-26T08:36:15;99717.28;;;12.10;41.89
36664;BME280;53333;51.976;20.144;2023-04-26T08:38:48;99720.72;;;12.26;41.97
36664;BME280;53333;51.976;20.144;2023-04-26T08:41:21;99716.72;;;13.57;40.28
36664;BME280;53333;51.976;20.144;2023-04-26T08:43:55;99716.38;;;15.01;38.27
36664;BME280;53333;51.976;20.144;2023-04-26T08:46:32;99707.31;;;16.20;35.76
36664;BME280;53333;51.976;20.144;2023-04-26T08:49:14;99708.78;;;15.55;35.19
36664;BME280;53333;51.976;20.144;2023-04-26T08:51:52;99719.09;;;14.39;36.26
36664;BME280;53333;51.976;20.144;2023-04-26T08:54:27;99725.00;;;14.05;36.67
36664;BME280;53333;51.976;20.144;2023-04-26T08:57:00;99725.28;;;13.49;38.34
36664;BME280;53333;51.976;20.144;2023-04-26T08:59:35;99735.84;;;12.83;39.30
36664;BME280;53333;51.976;20.144;2023-04-26T09:02:09;99742.13;;;12.26;39.71
36664;BME280;53333;51.976;20.144;2023-04-26T09:04:43;99739.28;;;11.85;39.71
36664;BME280;53333;51.976;20.144;2023-04-26T09:07:20;99737.91;;;14.00;36.46
36664;BME280;53333;51.976;20.144;2023-04-26T09:09:54;99727.78;;;14.42;35.72
36664;BME280;53333;51.976;20.144;2023-04-26T09:12:29;99729.69;;;15.87;34.00
36664;BME280;53333;51.976;20.144;2023-04-26T09:15:03;99724.22;;;17.55;31.59
36664;BME280;53333;51.976;20.144;2023-04-26T09:17:38;99726.44;;;18.65;29.97
36664;BME280;53333;51.976;20.144;2023-04-26T09:20:20;99717.63;;;19.52;27.77
36664;BME280;53333;51.976;20.144;2023-04-26T09:23:04;99712.72;;;20.14;27.09
36664;BME280;53333;51.976;20.144;2023-04-26T09:25:37;99724.50;;;20.33;25.86
36664;BME280;53333;51.976;20.144;2023-04-26T09:28:21;99735.44;;;18.75;26.75
36664;BME280;53333;51.976;20.144;2023-04-26T09:30:54;99734.75;;;17.37;28.75
36664;BME280;53333;51.976;20.144;2023-04-26T09:33:26;99741.41;;;16.32;29.82
36664;BME280;53333;51.976;20.144;2023-04-26T09:36:10;99743.03;;;15.04;31.21
36664;BME280;53333;51.976;20.144;2023-04-26T09:38:44;99752.75;;;13.93;32.01
36664;BME280;53333;51.976;20.144;2023-04-26T09:41:17;99748.22;;;14.95;30.93
36664;BME280;53333;51.976;20.144;2023-04-26T09:43:51;99739.03;;;16.73;28.88
36664;BME280;53333;51.976;20.144;2023-04-26T09:46:24;99731.25;;;18.21;27.36
36664;BME280;53333;51.976;20.144;2023-04-26T09:49:00;99726.88;;;19.40;25.62
36664;BME280;53333;51.976;20.144;2023-04-26T09:51:34;99732.44;;;17.86;26.58
36664;BME280;53333;51.976;20.144;2023-04-26T09:54:08;99740.16;;;16.25;28.79
36664;BME280;53333;51.976;20.144;2023-04-26T09:56:42;99746.63;;;14.92;30.52
36664;BME280;53333;51.976;20.144;2023-04-26T09:59:38;99742.94;;;13.79;31.99
36664;BME280;53333;51.976;20.144;2023-04-26T10:02:16;99751.50;;;13.58;32.63
36664;BME280;53333;51.976;20.144;2023-04-26T10:04:51;99740.78;;;13.71;32.53
36664;BME280;53333;51.976;20.144;2023-04-26T10:07:24;99758.31;;;13.50;32.89
36664;BME280;53333;51.976;20.144;2023-04-26T10:09:59;99764.56;;;13.23;33.58
36664;BME280;53333;51.976;20.144;2023-04-26T10:12:33;99760.00;;;13.11;33.88
36664;BME280;53333;51.976;20.144;2023-04-26T10:15:07;99759.69;;;13.70;33.51
36664;BME280;53333;51.976;20.144;2023-04-26T10:17:40;99755.78;;;15.97;31.37
36664;BME280;53333;51.976;20.144;2023-04-26T10:20:14;99750.59;;;17.95;29.31
36664;BME280;53333;51.976;20.144;2023-04-26T10:22:51;99759.50;;;18.68;28.55
36664;BME280;53333;51.976;20.144;2023-04-26T10:25:35;99740.22;;;18.00;28.84
36664;BME280;53333;51.976;20.144;2023-04-26T10:28:08;99762.09;;;16.88;29.04
36664;BME280;53333;51.976;20.144;2023-04-26T10:30:53;99748.63;;;15.50;30.62
36664;BME280;53333;51.976;20.144;2023-04-26T10:33:27;99758.94;;;14.70;31.49
36664;BME280;53333;51.976;20.144;2023-04-26T10:36:04;99751.03;;;16.12;29.82
36664;BME280;53333;51.976;20.144;2023-04-26T10:38:40;99746.13;;;15.71;30.09
36664;BME280;53333;51.976;20.144;2023-04-26T10:41:32;99761.28;;;15.36;30.44
36664;BME280;53333;51.976;20.144;2023-04-26T10:44:37;99770.19;;;14.88;31.09
36664;BME280;53333;51.976;20.144;2023-04-26T10:47:21;99753.25;;;14.99;31.16
36664;BME280;53333;51.976;20.144;2023-04-26T10:50:06;99751.41;;;15.13;30.88
36664;BME280;53333;51.976;20.144;2023-04-26T10:53:04;99762.50;;;14.45;31.29
36664;BME280;53333;51.976;20.144;2023-04-26T10:55:37;99763.22;;;13.70;32.78
36664;BME280;53333;51.976;20.144;2023-04-26T10:58:28;99764.22;;;13.15;33.34
36664;BME280;53333;51.976;20.144;2023-04-26T11:01:05;99764.59;;;12.81;33.79
36664;BME280;53333;51.976;20.144;2023-04-26T11:03:39;99764.03;;;13.03;33.38
36664;BME280;53333;51.976;20.144;2023-04-26T11:06:14;99772.09;;;14.99;31.73
36664;BME280;53333;51.976;20.144;2023-04-26T11:08:48;99768.09;;;15.53;30.97
36664;BME280;53333;51.976;20.144;2023-04-26T11:11:25;99761.69;;;15.67;30.54
36664;BME280;53333;51.976;20.144;2023-04-26T11:14:02;99770.56;;;15.56;30.93
36664;BME280;53333;51.976;20.144;2023-04-26T11:16:35;99783.56;;;15.38;31.30
36664;BME280;53333;51.976;20.144;2023-04-26T11:19:09;99784.34;;;15.03;31.49
36664;BME280;53333;51.976;20.144;2023-04-26T11:21:41;99785.94;;;14.69;31.71
36664;BME280;53333;51.976;20.144;2023-04-26T11:24:14;99792.50;;;14.39;32.34
36664;BME280;53333;51.976;20.144;2023-04-26T11:26:50;99785.63;;;14.22;32.59
36664;BME280;53333;51.976;20.144;2023-04-26T11:29:25;99787.44;;;14.22;32.24
36664;BME280;53333;51.976;20.144;2023-04-26T11:31:59;99782.41;;;14.17;32.38
36664;BME280;53333;51.976;20.144;2023-04-26T11:34:32;99790.19;;;13.94;32.20
36664;BME280;53333;51.976;20.144;2023-04-26T11:37:06;99803.88;;;13.64;32.69
36664;BME280;53333;51.976;20.144;2023-04-26T11:39:39;99799.56;;;13.49;33.23
36664;BME280;53333;51.976;20.144;2023-04-26T11:42:12;99804.59;;;13.26;33.11
36664;BME280;53333;51.976;20.144;2023-04-26T11:44:49;99802.84;;;12.83;33.35
36664;BME280;53333;51.976;20.144;2023-04-26T11:47:23;99807.94;;;12.45;34.38
36664;BME280;53333;51.976;20.144;2023-04-26T11:50:01;99810.63;;;12.30;34.70
36664;BME280;53333;51.976;20.144;2023-04-26T11:52:34;99817.50;;;12.34;34.70
36664;BME280;53333;51.976;20.144;2023-04-26T11:55:08;99814.88;;;12.18;34.78
36664;BME280;53333;51.976;20.144;2023-04-26T11:57:41;99817.56;;;12.18;34.99
36664;BME280;53333;51.976;20.144;2023-04-26T12:00:16;99818.59;;;12.02;35.59
36664;BME280;53333;51.976;20.144;2023-04-26T12:02:51;99826.38;;;11.90;35.19
36664;BME280;53333;51.976;20.144;2023-04-26T12:05:24;99826.84;;;11.82;35.45
36664;BME280;53333;51.976;20.144;2023-04-26T12:07:59;99836.78;;;11.64;35.61
36664;BME280;53333;51.976;20.144;2023-04-26T12:10:34;99827.22;;;11.60;35.79
36664;BME280;53333;51.976;20.144;2023-04-26T12:13:07;99825.19;;;11.80;35.83
36664;BME280;53333;51.976;20.144;2023-04-26T12:15:41;99810.00;;;12.11;35.54
36664;BME280;53333;51.976;20.144;2023-04-26T12:18:14;99819.97;;;12.38;35.07
36664;BME280;53333;51.976;20.144;2023-04-26T12:20:48;99817.50;;;12.78;34.88
36664;BME280;53333;51.976;20.144;2023-04-26T12:23:22;99811.69;;;13.13;35.07
36664;BME280;53333;51.976;20.144;2023-04-26T12:25:56;99806.00;;;13.32;34.73
36664;BME280;53333;51.976;20.144;2023-04-26T12:28:32;99816.16;;;13.41;34.66
36664;BME280;53333;51.976;20.144;2023-04-26T12:31:06;99823.34;;;13.26;33.88
36664;BME280;53333;51.976;20.144;2023-04-26T12:33:40;99820.56;;;13.00;33.92
36664;BME280;53333;51.976;20.144;2023-04-26T12:36:13;99828.91;;;12.67;34.23
36664;BME280;53333;51.976;20.144;2023-04-26T12:38:46;99823.72;;;12.35;34.46
36664;BME280;53333;51.976;20.144;2023-04-26T12:41:19;99835.81;;;12.12;34.91
36664;BME280;53333;51.976;20.144;2023-04-26T12:43:52;99822.72;;;12.07;35.26
36664;BME280;53333;51.976;20.144;2023-04-26T12:46:26;99828.09;;;12.22;35.02
36664;BME280;53333;51.976;20.144;2023-04-26T12:48:59;99835.84;;;12.26;35.07
36664;BME280;53333;51.976;20.144;2023-04-26T12:51:32;99835.09;;;12.24;34.99
36664;BME280;53333;51.976;20.144;2023-04-26T12:54:05;99834.50;;;12.05;35.10
36664;BME280;53333;51.976;20.144;2023-04-26T12:56:38;99836.66;;;11.82;35.33
36664;BME280;53333;51.976;20.144;2023-04-26T12:59:14;99853.72;;;11.65;35.83
36664;BME280;53333;51.976;20.144;2023-04-26T13:01:49;99839.03;;;11.56;35.87
36664;BME280;53333;51.976;20.144;2023-04-26T13:04:22;99844.22;;;11.59;35.54
36664;BME280;53333;51.976;20.144;2023-04-26T13:06:55;99836.00;;;11.78;35.33
36664;BME280;53333;51.976;20.144;2023-04-26T13:09:28;99834.41;;;11.90;34.80
36664;BME280;53333;51.976;20.144;2023-04-26T13:12:01;99833.72;;;11.87;34.55
36664;BME280;53333;51.976;20.144;2023-04-26T13:14:34;99836.47;;;11.85;35.08
36664;BME280;53333;51.976;20.144;2023-04-26T13:17:13;99847.88;;;11.89;35.14
36664;BME280;53333;51.976;20.144;2023-04-26T13:19:46;99849.84;;;11.85;34.69
36664;BME280;53333;51.976;20.144;2023-04-26T13:22:20;99856.38;;;11.81;34.65
36664;BME280;53333;51.976;20.144;2023-04-26T13:24:52;99847.28;;;11.84;34.11
36664;BME280;53333;51.976;20.144;2023-04-26T13:27:25;99850.03;;;11.82;34.09
36664;BME280;53333;51.976;20.144;2023-04-26T13:30:02;99849.00;;;11.85;33.66
36664;BME280;53333;51.976;20.144;2023-04-26T13:32:36;99860.16;;;11.93;33.63
36664;BME280;53333;51.976;20.144;2023-04-26T13:35:09;99859.78;;;11.99;33.60